sensor_id;sensor_type;location;lat;lon;timestamp;P1;durP1;ratioP1;P2;durP2;ratioP2
13805;SDS011;6974;53.606;9.872;2023-05-07T00:01:44;12.10;;;10.97;;
13805;SDS011;6974;53.606;9.872;2023-05-07T00:04:11;11.60;;;10.40;;
13805;SDS011;6974;53.606;9.872;2023-05-07T00:06:39;12.37;;;11.07;;
13805;SDS011;6974;53.606;9.872;2023-05-07T00:09:06;11.23;;;10.13;;
13805;SDS011;6974;53.606;9.872;2023-05-07T00:11:33;11.03;;;10.07;;
13805;SDS011;6974;53.606;9.872;2023-05-07T00:14:00;12.77;;;10.83;;
13805;SDS011;6974;53.606;9.872;2023-05-07T00:16:27;12.10;;;10.90;;
13805;SDS011;6974;53.606;9.872;2023-05-07T00:18:54;12.20;;;11.00;;
13805;SDS011;6974;53.606;9.872;2023-05-07T00:21:21;13.40;;;12.00;;
13805;SDS011;6974;53.606;9.872;2023-05-07T00:23:49;13.27;;;11.87;;
13805;SDS011;6974;53.606;9.872;2023-05-07T00:26:16;12.67;;;11.47;;
13805;SDS011;6974;53.606;9.872;2023-05-07T00:28:42;13.47;;;11.97;;
13805;SDS011;6974;53.606;9.872;2023-05-07T00:31:09;12.97;;;11.53;;
13805;SDS011;6974;53.606;9.872;2023-05-07T00:33:37;13.47;;;11.97;;
13805;SDS011;6974;53.606;9.872;2023-05-07T00:36:04;12.23;;;11.00;;
13805;SDS011;6974;53.606;9.872;2023-05-07T00:38:31;11.87;;;10.67;;
13805;SDS011;6974;53.606;9.872;2023-05-07T00:41:00;12.47;;;11.27;;
13805;SDS011;6974;53.606;9.872;2023-05-07T00:43:27;13.13;;;11.90;;
13805;SDS011;6974;53.606;9.872;2023-05-07T00:45:54;12.53;;;11.33;;
13805;SDS011;6974;53.606;9.872;2023-05-07T00:48:21;14.43;;;12.00;;
13805;SDS011;6974;53.606;9.872;2023-05-07T00:50:49;12.70;;;11.47;;
13805;SDS011;6974;53.606;9.872;2023-05-07T00:53:16;12.27;;;10.97;;
13805;SDS011;6974;53.606;9.872;2023-05-07T00:55:43;13.27;;;11.67;;
13805;SDS011;6974;53.606;9.872;2023-05-07T00:58:11;13.07;;;11.87;;
13805;SDS011;6974;53.606;9.872;2023-05-07T01:00:38;12.67;;;11.40;;
13805;SDS011;6974;53.606;9.872;2023-05-07T01:03:05;12.20;;;10.97;;
13805;SDS011;6974;53.606;9.872;2023-05-07T01:05:32;12.97;;;11.67;;
13805;SDS011;6974;53.606;9.872;2023-05-07T01:07:59;11.80;;;10.60;;
13805;SDS011;6974;53.606;9.872;2023-05-07T01:10:27;11.80;;;10.70;;
13805;SDS011;6974;53.606;9.872;2023-05-07T01:12:55;12.77;;;11.57;;
13805;SDS011;6974;53.606;9.872;2023-05-07T01:15:26;13.57;;;11.33;;
13805;SDS011;6974;53.606;9.872;2023-05-07T01:17:53;13.27;;;11.87;;
13805;SDS011;6974;53.606;9.872;2023-05-07T01:20:22;12.83;;;11.53;;
13805;SDS011;6974;53.606;9.872;2023-05-07T01:22:50;12.83;;;11.53;;
13805;SDS011;6974;53.606;9.872;2023-05-07T01:25:17;12.53;;;10.93;;
13805;SDS011;6974;53.606;9.872;2023-05-07T01:27:44;12.47;;;11.27;;
13805;SDS011;6974;53.606;9.872;2023-05-07T01:30:11;12.50;;;11.23;;
13805;SDS011;6974;53.606;9.872;2023-05-07T01:32:41;12.97;;;10.70;;
13805;SDS011;6974;53.606;9.872;2023-05-07T01:35:11;13.10;;;11.70;;
13805;SDS011;6974;53.606;9.872;2023-05-07T01:37:39;12.67;;;11.37;;
13805;SDS011;6974;53.606;9.872;2023-05-07T01:40:09;12.17;;;10.87;;
13805;SDS011;6974;53.606;9.872;2023-05-07T01:42:38;11.57;;;10.43;;
13805;SDS011;6974;53.606;9.872;2023-05-07T01:45:06;11.57;;;10.00;;
13805;SDS011;6974;53.606;9.872;2023-05-07T01:47:33;11.77;;;10.30;;
13805;SDS011;6974;53.606;9.872;2023-05-07T01:50:00;10.73;;;9.67;;
13805;SDS011;6974;53.606;9.872;2023-05-07T01:52:27;11.17;;;10.07;;
13805;SDS011;6974;53.606;9.872;2023-05-07T01:54:55;10.87;;;9.77;;
13805;SDS011;6974;53.606;9.872;2023-05-07T01:57:23;11.20;;;10.10;;
13805;SDS011;6974;53.606;9.872;2023-05-07T01:59:50;11.00;;;9.90;;
13805;SDS011;6974;53.606;9.872;2023-05-07T02:02:17;11.60;;;10.47;;
13805;SDS011;6974;53.606;9.872;2023-05-07T02:04:44;10.60;;;9.50;;
13805;SDS011;6974;53.606;9.872;2023-05-07T02:07:10;10.27;;;9.27;;
13805;SDS011;6974;53.606;9.872;2023-05-07T02:09:37;11.07;;;9.97;;
13805;SDS011;6974;53.606;9.872;2023-05-07T02:12:04;10.93;;;9.83;;
13805;SDS011;6974;53.606;9.872;2023-05-07T02:14:32;10.63;;;9.53;;
13805;SDS011;6974;53.606;9.872;2023-05-07T02:16:59;11.47;;;10.33;;
13805;SDS011;6974;53.606;9.872;2023-05-07T02:19:26;10.57;;;9.57;;
13805;SDS011;6974;53.606;9.872;2023-05-07T02:21:53;9.97;;;9.07;;
13805;SDS011;6974;53.606;9.872;2023-05-07T02:24:20;10.13;;;9.10;;
13805;SDS011;6974;53.606;9.872;2023-05-07T02:26:47;10.70;;;9.60;;
13805;SDS011;6974;53.606;9.872;2023-05-07T02:29:14;10.80;;;9.80;;
13805;SDS011;6974;53.606;9.872;2023-05-07T02:31:42;10.77;;;9.50;;
13805;SDS011;6974;53.606;9.872;2023-05-07T02:34:09;11.00;;;9.90;;
13805;SDS011;6974;53.606;9.872;2023-05-07T02:36:36;10.83;;;9.63;;
13805;SDS011;6974;53.606;9.872;2023-05-07T02:39:03;11.50;;;10.40;;
13805;SDS011;6974;53.606;9.872;2023-05-07T02:41:30;10.37;;;9.37;;
13805;SDS011;6974;53.606;9.872;2023-05-07T02:43:57;10.57;;;9.47;;
13805;SDS011;6974;53.606;9.872;2023-05-07T02:46:23;11.30;;;10.10;;
13805;SDS011;6974;53.606;9.872;2023-05-07T02:48:52;10.47;;;9.47;;
13805;SDS011;6974;53.606;9.872;2023-05-07T02:51:19;10.87;;;9.77;;
13805;SDS011;6974;53.606;9.872;2023-05-07T02:53:47;11.00;;;9.30;;
13805;SDS011;6974;53.606;9.872;2023-05-07T02:56:14;10.10;;;9.10;;
13805;SDS011;6974;53.606;9.872;2023-05-07T02:58:41;10.57;;;9.07;;
13805;SDS011;6974;53.606;9.872;2023-05-07T03:01:08;10.93;;;9.27;;
13805;SDS011;6974;53.606;9.872;2023-05-07T03:03:35;11.20;;;9.80;;
13805;SDS011;6974;53.606;9.872;2023-05-07T03:06:03;10.23;;;9.13;;
13805;SDS011;6974;53.606;9.872;2023-05-07T03:08:31;9.60;;;8.50;;
13805;SDS011;6974;53.606;9.872;2023-05-07T03:10:58;10.77;;;9.67;;
13805;SDS011;6974;53.606;9.872;2023-05-07T03:13:25;10.53;;;9.53;;
13805;SDS011;6974;53.606;9.872;2023-05-07T03:15:52;10.30;;;9.30;;
13805;SDS011;6974;53.606;9.872;2023-05-07T03:18:19;9.87;;;8.87;;
13805;SDS011;6974;53.606;9.872;2023-05-07T03:20:46;10.10;;;9.00;;
13805;SDS011;6974;53.606;9.872;2023-05-07T03:23:15;10.57;;;9.10;;
13805;SDS011;6974;53.606;9.872;2023-05-07T03:25:42;9.73;;;8.77;;
13805;SDS011;6974;53.606;9.872;2023-05-07T03:28:09;10.30;;;9.17;;
13805;SDS011;6974;53.606;9.872;2023-05-07T03:30:36;10.67;;;9.67;;
13805;SDS011;6974;53.606;9.872;2023-05-07T03:33:03;12.60;;;10.50;;
13805;SDS011;6974;53.606;9.872;2023-05-07T03:35:29;12.00;;;10.70;;
13805;SDS011;6974;53.606;9.872;2023-05-07T03:37:56;12.23;;;10.97;;
13805;SDS011;6974;53.606;9.872;2023-05-07T03:40:24;12.10;;;10.80;;
13805;SDS011;6974;53.606;9.872;2023-05-07T03:42:51;13.63;;;11.77;;
13805;SDS011;6974;53.606;9.872;2023-05-07T03:45:18;12.10;;;10.87;;
13805;SDS011;6974;53.606;9.872;2023-05-07T03:47:45;11.63;;;10.43;;
13805;SDS011;6974;53.606;9.872;2023-05-07T03:50:12;12.67;;;10.93;;
13805;SDS011;6974;53.606;9.872;2023-05-07T03:52:39;11.90;;;10.70;;
13805;SDS011;6974;53.606;9.872;2023-05-07T03:55:06;12.50;;;11.27;;
13805;SDS011;6974;53.606;9.872;2023-05-07T03:57:35;11.63;;;10.43;;
13805;SDS011;6974;53.606;9.872;2023-05-07T04:00:02;11.63;;;10.53;;
13805;SDS011;6974;53.606;9.872;2023-05-07T04:02:31;12.13;;;10.83;;
13805;SDS011;6974;53.606;9.872;2023-05-07T04:04:59;12.03;;;10.87;;
13805;SDS011;6974;53.606;9.872;2023-05-07T04:07:26;11.20;;;10.17;;
13805;SDS011;6974;53.606;9.872;2023-05-07T04:09:53;11.50;;;10.30;;
13805;SDS011;6974;53.606;9.872;2023-05-07T04:12:19;11.37;;;10.27;;
13805;SDS011;6974;53.606;9.872;2023-05-07T04:14:48;11.17;;;10.07;;
13805;SDS011;6974;53.606;9.872;2023-05-07T04:17:15;12.23;;;11.03;;
13805;SDS011;6974;53.606;9.872;2023-05-07T04:19:42;11.27;;;10.17;;
13805;SDS011;6974;53.606;9.872;2023-05-07T04:22:10;11.23;;;10.13;;
13805;SDS011;6974;53.606;9.872;2023-05-07T04:24:37;11.13;;;10.03;;
13805;SDS011;6974;53.606;9.872;2023-05-07T04:27:04;11.43;;;10.33;;
13805;SDS011;6974;53.606;9.872;2023-05-07T04:29:31;11.50;;;10.30;;
13805;SDS011;6974;53.606;9.872;2023-05-07T04:31:59;10.87;;;9.67;;
13805;SDS011;6974;53.606;9.872;2023-05-07T04:34:26;11.63;;;10.43;;
13805;SDS011;6974;53.606;9.872;2023-05-07T04:36:53;11.63;;;10.43;;
13805;SDS011;6974;53.606;9.872;2023-05-07T04:39:20;11.20;;;10.10;;
13805;SDS011;6974;53.606;9.872;2023-05-07T04:41:47;11.43;;;10.33;;
13805;SDS011;6974;53.606;9.872;2023-05-07T04:44:14;11.07;;;9.70;;
13805;SDS011;6974;53.606;9.872;2023-05-07T04:46:41;11.10;;;10.00;;
13805;SDS011;6974;53.606;9.872;2023-05-07T04:49:10;10.40;;;9.43;;
13805;SDS011;6974;53.606;9.872;2023-05-07T04:51:36;11.23;;;10.13;;
13805;SDS011;6974;53.606;9.872;2023-05-07T04:56:33;10.90;;;9.80;;
13805;SDS011;6974;53.606;9.872;2023-05-07T04:59:00;10.30;;;9.20;;
13805;SDS011;6974;53.606;9.872;2023-05-07T05:01:27;10.77;;;9.33;;
13805;SDS011;6974;53.606;9.872;2023-05-07T05:03:54;10.60;;;9.60;;
13805;SDS011;6974;53.606;9.872;2023-05-07T05:06:23;10.27;;;9.17;;
13805;SDS011;6974;53.606;9.872;2023-05-07T05:08:50;10.60;;;9.43;;
13805;SDS011;6974;53.606;9.872;2023-05-07T05:11:18;10.67;;;9.60;;
13805;SDS011;6974;53.606;9.872;2023-05-07T05:13:46;10.00;;;9.00;;
13805;SDS011;6974;53.606;9.872;2023-05-07T05:16:14;11.27;;;9.40;;
13805;SDS011;6974;53.606;9.872;2023-05-07T05:18:42;9.70;;;8.80;;
13805;SDS011;6974;53.606;9.872;2023-05-07T05:21:09;8.37;;;7.60;;
13805;SDS011;6974;53.606;9.872;2023-05-07T05:23:38;10.13;;;9.03;;
13805;SDS011;6974;53.606;9.872;2023-05-07T05:26:05;10.57;;;9.50;;
13805;SDS011;6974;53.606;9.872;2023-05-07T05:28:32;9.53;;;8.63;;
13805;SDS011;6974;53.606;9.872;2023-05-07T05:30:59;10.07;;;9.10;;
13805;SDS011;6974;53.606;9.872;2023-05-07T05:33:26;9.87;;;8.87;;
13805;SDS011;6974;53.606;9.872;2023-05-07T05:35:53;10.80;;;9.80;;
13805;SDS011;6974;53.606;9.872;2023-05-07T05:38:21;10.27;;;9.27;;
13805;SDS011;6974;53.606;9.872;2023-05-07T05:40:49;10.50;;;9.40;;
13805;SDS011;6974;53.606;9.872;2023-05-07T05:43:16;10.47;;;9.33;;
13805;SDS011;6974;53.606;9.872;2023-05-07T05:45:43;11.53;;;9.10;;
13805;SDS011;6974;53.606;9.872;2023-05-07T05:48:10;10.17;;;9.13;;
13805;SDS011;6974;53.606;9.872;2023-05-07T05:50:37;10.83;;;9.73;;
13805;SDS011;6974;53.606;9.872;2023-05-07T05:53:04;10.57;;;9.47;;
13805;SDS011;6974;53.606;9.872;2023-05-07T05:55:31;10.97;;;9.87;;
13805;SDS011;6974;53.606;9.872;2023-05-07T05:58:00;10.70;;;9.13;;
13805;SDS011;6974;53.606;9.872;2023-05-07T06:00:27;10.20;;;9.20;;
13805;SDS011;6974;53.606;9.872;2023-05-07T06:02:55;10.43;;;9.43;;
13805;SDS011;6974;53.606;9.872;2023-05-07T06:05:22;12.60;;;9.10;;
13805;SDS011;6974;53.606;9.872;2023-05-07T06:07:48;10.63;;;9.50;;
13805;SDS011;6974;53.606;9.872;2023-05-07T06:10:16;10.90;;;9.80;;
13805;SDS011;6974;53.606;9.872;2023-05-07T06:12:44;11.20;;;9.60;;
13805;SDS011;6974;53.606;9.872;2023-05-07T06:15:13;11.53;;;9.73;;
13805;SDS011;6974;53.606;9.872;2023-05-07T06:17:40;10.77;;;9.77;;
13805;SDS011;6974;53.606;9.872;2023-05-07T06:20:07;11.47;;;10.37;;
13805;SDS011;6974;53.606;9.872;2023-05-07T06:22:34;10.70;;;9.60;;
13805;SDS011;6974;53.606;9.872;2023-05-07T06:25:01;10.63;;;9.53;;
13805;SDS011;6974;53.606;9.872;2023-05-07T06:27:29;10.50;;;9.43;;
13805;SDS011;6974;53.606;9.872;2023-05-07T06:29:55;9.87;;;8.87;;
13805;SDS011;6974;53.606;9.872;2023-05-07T06:32:24;10.73;;;9.73;;
13805;SDS011;6974;53.606;9.872;2023-05-07T06:34:51;10.70;;;9.50;;
13805;SDS011;6974;53.606;9.872;2023-05-07T06:37:18;10.17;;;9.13;;
13805;SDS011;6974;53.606;9.872;2023-05-07T06:39:45;10.17;;;9.27;;
13805;SDS011;6974;53.606;9.872;2023-05-07T06:42:13;10.43;;;9.40;;
13805;SDS011;6974;53.606;9.872;2023-05-07T06:44:40;10.00;;;9.00;;
13805;SDS011;6974;53.606;9.872;2023-05-07T06:47:07;9.43;;;8.53;;
13805;SDS011;6974;53.606;9.872;2023-05-07T06:49:36;10.10;;;9.17;;
13805;SDS011;6974;53.606;9.872;2023-05-07T06:52:03;10.17;;;8.93;;
13805;SDS011;6974;53.606;9.872;2023-05-07T06:54:30;10.37;;;9.23;;
13805;SDS011;6974;53.606;9.872;2023-05-07T06:56:59;10.37;;;9.37;;
13805;SDS011;6974;53.606;9.872;2023-05-07T06:59:26;11.10;;;9.83;;
13805;SDS011;6974;53.606;9.872;2023-05-07T07:01:53;9.97;;;8.97;;
13805;SDS011;6974;53.606;9.872;2023-05-07T07:04:20;10.97;;;9.23;;
13805;SDS011;6974;53.606;9.872;2023-05-07T07:06:50;10.50;;;9.40;;
13805;SDS011;6974;53.606;9.872;2023-05-07T07:09:19;9.87;;;8.87;;
13805;SDS011;6974;53.606;9.872;2023-05-07T07:11:46;10.93;;;9.83;;
13805;SDS011;6974;53.606;9.872;2023-05-07T07:14:14;9.57;;;8.60;;
13805;SDS011;6974;53.606;9.872;2023-05-07T07:16:41;11.27;;;9.40;;
13805;SDS011;6974;53.606;9.872;2023-05-07T07:19:08;9.70;;;8.80;;
13805;SDS011;6974;53.606;9.872;2023-05-07T07:21:35;9.10;;;8.20;;
13805;SDS011;6974;53.606;9.872;2023-05-07T07:24:03;8.80;;;7.63;;
13805;SDS011;6974;53.606;9.872;2023-05-07T07:26:31;9.40;;;7.90;;
13805;SDS011;6974;53.606;9.872;2023-05-07T07:28:58;8.70;;;7.47;;
13805;SDS011;6974;53.606;9.872;2023-05-07T07:31:25;8.13;;;7.33;;
13805;SDS011;6974;53.606;9.872;2023-05-07T07:33:52;8.00;;;7.20;;
13805;SDS011;6974;53.606;9.872;2023-05-07T07:36:20;8.30;;;7.50;;
13805;SDS011;6974;53.606;9.872;2023-05-07T07:38:47;8.13;;;7.43;;
13805;SDS011;6974;53.606;9.872;2023-05-07T07:41:16;8.07;;;7.27;;
13805;SDS011;6974;53.606;9.872;2023-05-07T07:43:44;8.53;;;7.73;;
13805;SDS011;6974;53.606;9.872;2023-05-07T07:46:11;8.77;;;7.97;;
13805;SDS011;6974;53.606;9.872;2023-05-07T07:48:39;8.37;;;7.57;;
13805;SDS011;6974;53.606;9.872;2023-05-07T07:51:07;8.37;;;7.60;;
13805;SDS011;6974;53.606;9.872;2023-05-07T07:53:35;8.57;;;7.70;;
13805;SDS011;6974;53.606;9.872;2023-05-07T07:56:03;7.63;;;6.73;;
13805;SDS011;6974;53.606;9.872;2023-05-07T07:58:32;8.23;;;7.10;;
13805;SDS011;6974;53.606;9.872;2023-05-07T08:01:00;8.80;;;7.57;;
13805;SDS011;6974;53.606;9.872;2023-05-07T08:03:28;7.70;;;6.90;;
13805;SDS011;6974;53.606;9.872;2023-05-07T08:05:57;8.20;;;7.23;;
13805;SDS011;6974;53.606;9.872;2023-05-07T08:08:24;8.27;;;7.50;;
13805;SDS011;6974;53.606;9.872;2023-05-07T08:10:51;7.57;;;6.87;;
13805;SDS011;6974;53.606;9.872;2023-05-07T08:13:19;8.00;;;7.20;;
13805;SDS011;6974;53.606;9.872;2023-05-07T08:15:48;7.90;;;7.10;;
13805;SDS011;6974;53.606;9.872;2023-05-07T08:18:15;8.07;;;7.37;;
13805;SDS011;6974;53.606;9.872;2023-05-07T08:20:42;8.97;;;7.20;;
13805;SDS011;6974;53.606;9.872;2023-05-07T08:23:09;7.70;;;6.97;;
13805;SDS011;6974;53.606;9.872;2023-05-07T08:25:36;7.80;;;7.10;;
13805;SDS011;6974;53.606;9.872;2023-05-07T08:28:03;7.17;;;6.57;;
13805;SDS011;6974;53.606;9.872;2023-05-07T08:30:32;6.90;;;6.30;;
13805;SDS011;6974;53.606;9.872;2023-05-07T08:33:01;7.87;;;6.57;;
13805;SDS011;6974;53.606;9.872;2023-05-07T08:35:28;8.60;;;7.00;;
13805;SDS011;6974;53.606;9.872;2023-05-07T08:37:55;7.13;;;6.50;;
13805;SDS011;6974;53.606;9.872;2023-05-07T08:40:22;7.37;;;6.70;;
13805;SDS011;6974;53.606;9.872;2023-05-07T08:42:52;7.57;;;6.87;;
13805;SDS011;6974;53.606;9.872;2023-05-07T08:45:20;8.60;;;6.73;;
13805;SDS011;6974;53.606;9.872;2023-05-07T08:47:47;7.43;;;6.60;;
13805;SDS011;6974;53.606;9.872;2023-05-07T08:50:19;8.10;;;6.90;;
13805;SDS011;6974;53.606;9.872;2023-05-07T08:52:47;7.17;;;6.47;;
13805;SDS011;6974;53.606;9.872;2023-05-07T08:55:14;6.83;;;6.07;;
13805;SDS011;6974;53.606;9.872;2023-05-07T08:57:42;9.37;;;6.97;;
13805;SDS011;6974;53.606;9.872;2023-05-07T09:00:09;7.87;;;7.00;;
13805;SDS011;6974;53.606;9.872;2023-05-07T09:02:38;7.90;;;7.20;;
13805;SDS011;6974;53.606;9.872;2023-05-07T09:05:06;7.03;;;6.43;;
13805;SDS011;6974;53.606;9.872;2023-05-07T09:07:35;8.07;;;7.30;;
13805;SDS011;6974;53.606;9.872;2023-05-07T09:10:02;7.60;;;6.90;;
13805;SDS011;6974;53.606;9.872;2023-05-07T09:12:31;9.60;;;7.20;;
13805;SDS011;6974;53.606;9.872;2023-05-07T09:15:00;8.43;;;7.60;;
13805;SDS011;6974;53.606;9.872;2023-05-07T09:17:28;8.50;;;7.77;;
13805;SDS011;6974;53.606;9.872;2023-05-07T09:19:55;8.17;;;7.47;;
13805;SDS011;6974;53.606;9.872;2023-05-07T09:22:22;8.10;;;7.40;;
13805;SDS011;6974;53.606;9.872;2023-05-07T09:24:50;7.93;;;7.10;;
13805;SDS011;6974;53.606;9.872;2023-05-07T09:27:18;7.93;;;7.13;;
13805;SDS011;6974;53.606;9.872;2023-05-07T09:29:44;8.13;;;7.33;;
13805;SDS011;6974;53.606;9.872;2023-05-07T09:32:11;7.33;;;6.63;;
13805;SDS011;6974;53.606;9.872;2023-05-07T09:34:38;7.53;;;6.83;;
13805;SDS011;6974;53.606;9.872;2023-05-07T09:37:06;6.87;;;6.27;;
13805;SDS011;6974;53.606;9.872;2023-05-07T09:39:39;6.80;;;6.20;;
13805;SDS011;6974;53.606;9.872;2023-05-07T09:42:08;7.23;;;6.53;;
13805;SDS011;6974;53.606;9.872;2023-05-07T09:44:36;6.80;;;6.17;;
13805;SDS011;6974;53.606;9.872;2023-05-07T09:47:04;7.77;;;7.00;;
13805;SDS011;6974;53.606;9.872;2023-05-07T09:49:33;6.70;;;5.97;;
13805;SDS011;6974;53.606;9.872;2023-05-07T09:52:03;6.67;;;6.17;;
13805;SDS011;6974;53.606;9.872;2023-05-07T09:54:34;7.13;;;5.73;;
13805;SDS011;6974;53.606;9.872;2023-05-07T09:57:03;6.93;;;6.30;;
13805;SDS011;6974;53.606;9.872;2023-05-07T09:59:35;7.33;;;6.73;;
13805;SDS011;6974;53.606;9.872;2023-05-07T10:02:04;6.67;;;6.07;;
13805;SDS011;6974;53.606;9.872;2023-05-07T10:04:31;7.83;;;7.07;;
13805;SDS011;6974;53.606;9.872;2023-05-07T10:06:59;6.90;;;6.30;;
13805;SDS011;6974;53.606;9.872;2023-05-07T10:09:26;6.97;;;6.37;;
13805;SDS011;6974;53.606;9.872;2023-05-07T10:11:53;6.93;;;6.30;;
13805;SDS011;6974;53.606;9.872;2023-05-07T10:14:21;6.90;;;6.20;;
13805;SDS011;6974;53.606;9.872;2023-05-07T10:16:50;8.13;;;6.50;;
13805;SDS011;6974;53.606;9.872;2023-05-07T10:19:21;6.90;;;6.20;;
13805;SDS011;6974;53.606;9.872;2023-05-07T10:21:51;6.43;;;5.93;;
13805;SDS011;6974;53.606;9.872;2023-05-07T10:24:25;6.50;;;5.80;;
13805;SDS011;6974;53.606;9.872;2023-05-07T10:26:53;6.10;;;5.50;;
13805;SDS011;6974;53.606;9.872;2023-05-07T10:29:25;7.33;;;6.70;;
13805;SDS011;6974;53.606;9.872;2023-05-07T10:32:04;6.67;;;6.07;;
13805;SDS011;6974;53.606;9.872;2023-05-07T10:34:41;6.97;;;6.37;;
13805;SDS011;6974;53.606;9.872;2023-05-07T10:37:10;7.67;;;6.63;;
13805;SDS011;6974;53.606;9.872;2023-05-07T10:39:38;7.13;;;6.30;;
13805;SDS011;6974;53.606;9.872;2023-05-07T10:42:07;6.47;;;5.97;;
13805;SDS011;6974;53.606;9.872;2023-05-07T10:44:34;7.77;;;7.07;;
13805;SDS011;6974;53.606;9.872;2023-05-07T10:47:05;6.87;;;6.10;;
13805;SDS011;6974;53.606;9.872;2023-05-07T10:49:34;7.20;;;6.53;;
13805;SDS011;6974;53.606;9.872;2023-05-07T10:52:12;6.77;;;6.10;;
13805;SDS011;6974;53.606;9.872;2023-05-07T10:54:41;6.50;;;5.90;;
13805;SDS011;6974;53.606;9.872;2023-05-07T11:00:01;6.10;;;5.60;;
13805;SDS011;6974;53.606;9.872;2023-05-07T11:05:21;5.93;;;5.43;;
13805;SDS011;6974;53.606;9.872;2023-05-07T11:07:54;6.27;;;5.63;;
13805;SDS011;6974;53.606;9.872;2023-05-07T11:10:21;6.63;;;5.23;;
13805;SDS011;6974;53.606;9.872;2023-05-07T11:12:52;6.80;;;5.57;;
13805;SDS011;6974;53.606;9.872;2023-05-07T11:18:15;6.73;;;5.53;;
13805;SDS011;6974;53.606;9.872;2023-05-07T11:20:55;5.70;;;5.20;;
13805;SDS011;6974;53.606;9.872;2023-05-07T11:26:23;5.83;;;5.30;;
13805;SDS011;6974;53.606;9.872;2023-05-07T11:28:51;6.47;;;5.87;;
13805;SDS011;6974;53.606;9.872;2023-05-07T11:31:23;7.33;;;6.63;;
13805;SDS011;6974;53.606;9.872;2023-05-07T11:33:52;6.27;;;5.60;;
13805;SDS011;6974;53.606;9.872;2023-05-07T11:36:22;6.50;;;5.90;;
13805;SDS011;6974;53.606;9.872;2023-05-07T11:38:51;6.03;;;5.53;;
13805;SDS011;6974;53.606;9.872;2023-05-07T11:41:18;5.83;;;5.27;;
13805;SDS011;6974;53.606;9.872;2023-05-07T11:43:56;9.17;;;5.73;;
13805;SDS011;6974;53.606;9.872;2023-05-07T11:46:24;6.03;;;5.37;;
13805;SDS011;6974;53.606;9.872;2023-05-07T11:48:51;5.97;;;5.43;;
13805;SDS011;6974;53.606;9.872;2023-05-07T11:51:18;6.20;;;5.67;;
13805;SDS011;6974;53.606;9.872;2023-05-07T11:53:48;5.47;;;4.97;;
13805;SDS011;6974;53.606;9.872;2023-05-07T11:56:17;5.73;;;5.13;;
13805;SDS011;6974;53.606;9.872;2023-05-07T11:58:45;5.80;;;5.30;;
13805;SDS011;6974;53.606;9.872;2023-05-07T12:01:13;5.53;;;5.03;;
13805;SDS011;6974;53.606;9.872;2023-05-07T12:03:42;5.30;;;4.87;;
13805;SDS011;6974;53.606;9.872;2023-05-07T12:06:11;6.93;;;4.80;;
13805;SDS011;6974;53.606;9.872;2023-05-07T12:08:39;5.60;;;5.10;;
13805;SDS011;6974;53.606;9.872;2023-05-07T12:11:10;5.27;;;4.77;;
13805;SDS011;6974;53.606;9.872;2023-05-07T12:13:41;4.90;;;4.40;;
13805;SDS011;6974;53.606;9.872;2023-05-07T12:16:10;4.67;;;4.27;;
13805;SDS011;6974;53.606;9.872;2023-05-07T12:18:39;4.40;;;4.10;;
13805;SDS011;6974;53.606;9.872;2023-05-07T12:21:07;4.50;;;4.10;;
13805;SDS011;6974;53.606;9.872;2023-05-07T12:23:35;5.87;;;5.00;;
13805;SDS011;6974;53.606;9.872;2023-05-07T12:26:03;5.00;;;4.53;;
13805;SDS011;6974;53.606;9.872;2023-05-07T12:28:32;4.73;;;4.33;;
13805;SDS011;6974;53.606;9.872;2023-05-07T12:31:03;5.57;;;4.33;;
13805;SDS011;6974;53.606;9.872;2023-05-07T12:33:31;4.37;;;3.97;;
13805;SDS011;6974;53.606;9.872;2023-05-07T12:36:02;4.40;;;4.07;;
13805;SDS011;6974;53.606;9.872;2023-05-07T12:38:34;5.47;;;4.50;;
13805;SDS011;6974;53.606;9.872;2023-05-07T12:41:03;4.60;;;4.20;;
13805;SDS011;6974;53.606;9.872;2023-05-07T12:43:32;5.80;;;4.30;;
13805;SDS011;6974;53.606;9.872;2023-05-07T12:46:00;4.97;;;4.33;;
13805;SDS011;6974;53.606;9.872;2023-05-07T12:48:30;4.47;;;4.07;;
13805;SDS011;6974;53.606;9.872;2023-05-07T12:50:59;4.67;;;4.27;;
13805;SDS011;6974;53.606;9.872;2023-05-07T12:53:27;4.57;;;4.13;;
13805;SDS011;6974;53.606;9.872;2023-05-07T12:55:56;5.00;;;3.97;;
13805;SDS011;6974;53.606;9.872;2023-05-07T12:58:25;4.27;;;3.87;;
13805;SDS011;6974;53.606;9.872;2023-05-07T13:00:55;4.10;;;3.70;;
13805;SDS011;6974;53.606;9.872;2023-05-07T13:03:27;4.07;;;3.67;;
13805;SDS011;6974;53.606;9.872;2023-05-07T13:05:55;3.80;;;3.40;;
13805;SDS011;6974;53.606;9.872;2023-05-07T13:08:24;4.60;;;3.80;;
13805;SDS011;6974;53.606;9.872;2023-05-07T13:10:56;3.57;;;3.33;;
13805;SDS011;6974;53.606;9.872;2023-05-07T13:13:24;3.53;;;3.10;;
13805;SDS011;6974;53.606;9.872;2023-05-07T13:15:51;3.80;;;3.50;;
13805;SDS011;6974;53.606;9.872;2023-05-07T13:18:20;4.23;;;3.30;;
13805;SDS011;6974;53.606;9.872;2023-05-07T13:20:48;4.33;;;3.93;;
13805;SDS011;6974;53.606;9.872;2023-05-07T13:23:16;4.30;;;3.90;;
13805;SDS011;6974;53.606;9.872;2023-05-07T13:25:43;4.20;;;3.70;;
13805;SDS011;6974;53.606;9.872;2023-05-07T13:28:10;3.90;;;3.50;;
13805;SDS011;6974;53.606;9.872;2023-05-07T13:30:38;4.07;;;3.70;;
13805;SDS011;6974;53.606;9.872;2023-05-07T13:33:05;3.73;;;3.43;;
13805;SDS011;6974;53.606;9.872;2023-05-07T13:35:34;3.50;;;3.20;;
13805;SDS011;6974;53.606;9.872;2023-05-07T13:38:02;3.77;;;3.20;;
13805;SDS011;6974;53.606;9.872;2023-05-07T13:40:31;3.50;;;3.03;;
13805;SDS011;6974;53.606;9.872;2023-05-07T13:42:58;4.23;;;3.83;;
13805;SDS011;6974;53.606;9.872;2023-05-07T13:45:27;4.13;;;3.50;;
13805;SDS011;6974;53.606;9.872;2023-05-07T13:47:55;3.50;;;3.20;;
13805;SDS011;6974;53.606;9.872;2023-05-07T13:50:23;3.30;;;2.93;;
13805;SDS011;6974;53.606;9.872;2023-05-07T13:52:53;3.80;;;3.30;;
13805;SDS011;6974;53.606;9.872;2023-05-07T13:55:20;3.50;;;3.20;;
13805;SDS011;6974;53.606;9.872;2023-05-07T13:57:54;4.83;;;3.20;;
13805;SDS011;6974;53.606;9.872;2023-05-07T14:00:22;3.60;;;3.30;;
13805;SDS011;6974;53.606;9.872;2023-05-07T14:02:49;3.40;;;3.10;;
13805;SDS011;6974;53.606;9.872;2023-05-07T14:05:17;3.37;;;3.07;;
13805;SDS011;6974;53.606;9.872;2023-05-07T14:07:44;4.00;;;3.20;;
13805;SDS011;6974;53.606;9.872;2023-05-07T14:10:13;3.33;;;2.90;;
13805;SDS011;6974;53.606;9.872;2023-05-07T14:12:40;3.30;;;2.93;;
13805;SDS011;6974;53.606;9.872;2023-05-07T14:15:07;3.40;;;2.93;;
13805;SDS011;6974;53.606;9.872;2023-05-07T14:17:35;3.10;;;2.80;;
13805;SDS011;6974;53.606;9.872;2023-05-07T14:20:03;3.90;;;2.80;;
13805;SDS011;6974;53.606;9.872;2023-05-07T14:22:32;2.97;;;2.77;;
13805;SDS011;6974;53.606;9.872;2023-05-07T14:24:59;3.37;;;3.07;;
13805;SDS011;6974;53.606;9.872;2023-05-07T14:27:28;3.63;;;2.93;;
13805;SDS011;6974;53.606;9.872;2023-05-07T14:29:55;3.17;;;2.73;;
13805;SDS011;6974;53.606;9.872;2023-05-07T14:32:24;3.07;;;2.77;;
13805;SDS011;6974;53.606;9.872;2023-05-07T14:34:51;3.33;;;2.83;;
13805;SDS011;6974;53.606;9.872;2023-05-07T14:37:18;2.80;;;2.43;;
13805;SDS011;6974;53.606;9.872;2023-05-07T14:39:46;3.47;;;2.63;;
13805;SDS011;6974;53.606;9.872;2023-05-07T14:42:13;2.90;;;2.70;;
13805;SDS011;6974;53.606;9.872;2023-05-07T14:44:42;2.70;;;2.50;;
13805;SDS011;6974;53.606;9.872;2023-05-07T14:47:10;3.30;;;2.80;;
13805;SDS011;6974;53.606;9.872;2023-05-07T14:49:37;2.87;;;2.57;;
13805;SDS011;6974;53.606;9.872;2023-05-07T14:52:05;3.53;;;2.97;;
13805;SDS011;6974;53.606;9.872;2023-05-07T14:54:34;4.70;;;2.70;;
13805;SDS011;6974;53.606;9.872;2023-05-07T14:57:04;2.73;;;2.47;;
13805;SDS011;6974;53.606;9.872;2023-05-07T14:59:33;2.77;;;2.53;;
13805;SDS011;6974;53.606;9.872;2023-05-07T15:02:02;3.73;;;2.57;;
13805;SDS011;6974;53.606;9.872;2023-05-07T15:04:30;3.40;;;2.60;;
13805;SDS011;6974;53.606;9.872;2023-05-07T15:06:59;4.37;;;2.70;;
13805;SDS011;6974;53.606;9.872;2023-05-07T15:09:26;2.90;;;2.70;;
13805;SDS011;6974;53.606;9.872;2023-05-07T15:11:53;4.10;;;2.60;;